sensor_id;sensor_type;location;lat;lon;timestamp;P1;durP1;ratioP1;P2;durP2;ratioP2
71965;SDS011;59836;52.132;5.442;2022-10-19T00:03:41;12.40;;;5.90;;
71965;SDS011;59836;52.132;5.442;2022-10-19T00:06:09;8.93;;;5.80;;
71965;SDS011;59836;52.132;5.442;2022-10-19T00:08:57;8.75;;;5.80;;
71965;SDS011;59836;52.132;5.442;2022-10-19T00:11:32;8.60;;;5.35;;
71965;SDS011;59836;52.132;5.442;2022-10-19T00:14:00;10.60;;;5.17;;
71965;SDS011;59836;52.132;5.442;2022-10-19T00:16:28;10.05;;;4.93;;
71965;SDS011;59836;52.132;5.442;2022-10-19T00:21:49;10.60;;;5.65;;
71965;SDS011;59836;52.132;5.442;2022-10-19T00:24:21;9.57;;;5.55;;
71965;SDS011;59836;52.132;5.442;2022-10-19T00:26:48;11.97;;;6.00;;
71965;SDS011;59836;52.132;5.442;2022-10-19T00:29:15;10.63;;;5.40;;
71965;SDS011;59836;52.132;5.442;2022-10-19T00:31:49;10.52;;;5.30;;
71965;SDS011;59836;52.132;5.442;2022-10-19T00:34:16;13.02;;;6.03;;
71965;SDS011;59836;52.132;5.442;2022-10-19T00:36:43;10.55;;;5.32;;
71965;SDS011;59836;52.132;5.442;2022-10-19T00:39:11;12.83;;;4.50;;
71965;SDS011;59836;52.132;5.442;2022-10-19T00:41:39;8.27;;;4.80;;
71965;SDS011;59836;52.132;5.442;2022-10-19T00:44:53;7.75;;;5.10;;
71965;SDS011;59836;52.132;5.442;2022-10-19T00:46:58;8.18;;;4.80;;
71965;SDS011;59836;52.132;5.442;2022-10-19T00:49:29;8.65;;;3.78;;
71965;SDS011;59836;52.132;5.442;2022-10-19T00:52:10;8.70;;;4.70;;
71965;SDS011;59836;52.132;5.442;2022-10-19T00:54:40;9.45;;;5.18;;
71965;SDS011;59836;52.132;5.442;2022-10-19T00:57:09;8.57;;;4.57;;
71965;SDS011;59836;52.132;5.442;2022-10-19T00:59:36;7.13;;;4.40;;
71965;SDS011;59836;52.132;5.442;2022-10-19T01:02:10;10.38;;;5.10;;
71965;SDS011;59836;52.132;5.442;2022-10-19T01:04:37;7.87;;;4.87;;
71965;SDS011;59836;52.132;5.442;2022-10-19T01:07:07;8.55;;;5.25;;
71965;SDS011;59836;52.132;5.442;2022-10-19T01:09:34;9.40;;;5.07;;
71965;SDS011;59836;52.132;5.442;2022-10-19T01:12:10;9.93;;;5.30;;
71965;SDS011;59836;52.132;5.442;2022-10-19T01:15:02;9.50;;;5.35;;
71965;SDS011;59836;52.132;5.442;2022-10-19T01:17:43;9.07;;;5.13;;
71965;SDS011;59836;52.132;5.442;2022-10-19T01:30:00;8.75;;;5.32;;
71965;SDS011;59836;52.132;5.442;2022-10-19T01:35:34;10.73;;;4.50;;
71965;SDS011;59836;52.132;5.442;2022-10-19T01:38:14;8.30;;;4.10;;
71965;SDS011;59836;52.132;5.442;2022-10-19T01:40:54;9.55;;;3.67;;
71965;SDS011;59836;52.132;5.442;2022-10-19T01:46:06;5.60;;;3.73;;
71965;SDS011;59836;52.132;5.442;2022-10-19T01:48:47;7.10;;;3.83;;
71965;SDS011;59836;52.132;5.442;2022-10-19T01:51:41;7.35;;;3.15;;
71965;SDS011;59836;52.132;5.442;2022-10-19T01:54:13;6.32;;;3.33;;
71965;SDS011;59836;52.132;5.442;2022-10-19T01:56:42;5.18;;;3.55;;
71965;SDS011;59836;52.132;5.442;2022-10-19T01:59:10;5.63;;;3.30;;
71965;SDS011;59836;52.132;5.442;2022-10-19T02:01:40;6.35;;;3.60;;
71965;SDS011;59836;52.132;5.442;2022-10-19T02:04:11;5.00;;;3.22;;
71965;SDS011;59836;52.132;5.442;2022-10-19T02:06:40;6.25;;;4.10;;
71965;SDS011;59836;52.132;5.442;2022-10-19T02:09:07;5.90;;;3.72;;
71965;SDS011;59836;52.132;5.442;2022-10-19T02:11:34;5.07;;;4.27;;
71965;SDS011;59836;52.132;5.442;2022-10-19T02:14:08;6.65;;;4.20;;
71965;SDS011;59836;52.132;5.442;2022-10-19T02:19:42;6.72;;;4.13;;
71965;SDS011;59836;52.132;5.442;2022-10-19T02:22:11;5.43;;;3.75;;
71965;SDS011;59836;52.132;5.442;2022-10-19T02:24:38;5.27;;;3.80;;
71965;SDS011;59836;52.132;5.442;2022-10-19T02:27:05;5.35;;;4.13;;
71965;SDS011;59836;52.132;5.442;2022-10-19T02:29:33;6.85;;;4.50;;
71965;SDS011;59836;52.132;5.442;2022-10-19T02:32:02;7.00;;;3.60;;
71965;SDS011;59836;52.132;5.442;2022-10-19T02:34:29;7.30;;;4.25;;
71965;SDS011;59836;52.132;5.442;2022-10-19T02:36:56;7.90;;;4.87;;
71965;SDS011;59836;52.132;5.442;2022-10-19T02:39:24;9.25;;;4.40;;
71965;SDS011;59836;52.132;5.442;2022-10-19T02:42:03;9.10;;;4.82;;
71965;SDS011;59836;52.132;5.442;2022-10-19T02:44:42;5.95;;;4.00;;
71965;SDS011;59836;52.132;5.442;2022-10-19T02:47:19;6.68;;;4.20;;
71965;SDS011;59836;52.132;5.442;2022-10-19T02:49:50;8.10;;;4.70;;
71965;SDS011;59836;52.132;5.442;2022-10-19T02:52:17;6.47;;;4.07;;
71965;SDS011;59836;52.132;5.442;2022-10-19T02:54:44;6.43;;;3.78;;
71965;SDS011;59836;52.132;5.442;2022-10-19T02:57:15;8.05;;;4.63;;
71965;SDS011;59836;52.132;5.442;2022-10-19T02:59:50;7.50;;;3.78;;
71965;SDS011;59836;52.132;5.442;2022-10-19T03:02:18;5.93;;;3.90;;
71965;SDS011;59836;52.132;5.442;2022-10-19T03:04:45;7.50;;;3.47;;
71965;SDS011;59836;52.132;5.442;2022-10-19T03:07:18;4.55;;;3.33;;
71965;SDS011;59836;52.132;5.442;2022-10-19T03:09:46;5.28;;;3.58;;
71965;SDS011;59836;52.132;5.442;2022-10-19T03:12:12;5.47;;;2.95;;
71965;SDS011;59836;52.132;5.442;2022-10-19T03:14:39;4.13;;;3.07;;
71965;SDS011;59836;52.132;5.442;2022-10-19T03:17:05;6.05;;;3.22;;
71965;SDS011;59836;52.132;5.442;2022-10-19T03:19:33;5.05;;;2.70;;
71965;SDS011;59836;52.132;5.442;2022-10-19T03:22:00;5.13;;;2.20;;
71965;SDS011;59836;52.132;5.442;2022-10-19T03:24:28;3.70;;;2.30;;
71965;SDS011;59836;52.132;5.442;2022-10-19T03:26:55;5.13;;;3.17;;
71965;SDS011;59836;52.132;5.442;2022-10-19T03:29:22;3.58;;;3.00;;
71965;SDS011;59836;52.132;5.442;2022-10-19T03:31:51;5.93;;;2.85;;
71965;SDS011;59836;52.132;5.442;2022-10-19T03:34:18;3.83;;;2.55;;
71965;SDS011;59836;52.132;5.442;2022-10-19T03:36:44;3.65;;;2.40;;
71965;SDS011;59836;52.132;5.442;2022-10-19T03:39:18;3.70;;;2.77;;
71965;SDS011;59836;52.132;5.442;2022-10-19T03:41:44;3.67;;;2.83;;
71965;SDS011;59836;52.132;5.442;2022-10-19T03:44:19;6.53;;;2.90;;
71965;SDS011;59836;52.132;5.442;2022-10-19T03:46:45;3.63;;;2.30;;
71965;SDS011;59836;52.132;5.442;2022-10-19T03:49:13;3.60;;;2.67;;
71965;SDS011;59836;52.132;5.442;2022-10-19T03:51:40;5.47;;;3.03;;
71965;SDS011;59836;52.132;5.442;2022-10-19T03:54:14;3.35;;;2.90;;
71965;SDS011;59836;52.132;5.442;2022-10-19T03:56:42;5.72;;;3.50;;
71965;SDS011;59836;52.132;5.442;2022-10-19T03:59:12;5.90;;;2.47;;
71965;SDS011;59836;52.132;5.442;2022-10-19T04:01:42;6.72;;;3.78;;
71965;SDS011;59836;52.132;5.442;2022-10-19T04:04:11;4.13;;;3.30;;
71965;SDS011;59836;52.132;5.442;2022-10-19T04:06:40;5.43;;;3.50;;
71965;SDS011;59836;52.132;5.442;2022-10-19T04:09:10;5.55;;;3.38;;
71965;SDS011;59836;52.132;5.442;2022-10-19T04:11:38;4.53;;;3.28;;
71965;SDS011;59836;52.132;5.442;2022-10-19T04:14:04;4.60;;;2.85;;
71965;SDS011;59836;52.132;5.442;2022-10-19T04:16:45;4.30;;;2.90;;
71965;SDS011;59836;52.132;5.442;2022-10-19T04:19:12;5.18;;;2.80;;
71965;SDS011;59836;52.132;5.442;2022-10-19T04:21:49;5.82;;;3.28;;
71965;SDS011;59836;52.132;5.442;2022-10-19T04:24:16;4.50;;;3.20;;
71965;SDS011;59836;52.132;5.442;2022-10-19T04:26:44;7.25;;;3.17;;
71965;SDS011;59836;52.132;5.442;2022-10-19T04:29:28;5.57;;;3.23;;
71965;SDS011;59836;52.132;5.442;2022-10-19T04:34:44;5.78;;;2.85;;
71965;SDS011;59836;52.132;5.442;2022-10-19T04:37:22;4.22;;;2.95;;
71965;SDS011;59836;52.132;5.442;2022-10-19T04:45:47;6.78;;;2.53;;
71965;SDS011;59836;52.132;5.442;2022-10-19T04:48:16;4.22;;;3.20;;
71965;SDS011;59836;52.132;5.442;2022-10-19T04:50:43;4.88;;;2.88;;
71965;SDS011;59836;52.132;5.442;2022-10-19T04:53:17;4.35;;;2.38;;
71965;SDS011;59836;52.132;5.442;2022-10-19T04:55:44;2.90;;;2.10;;
71965;SDS011;59836;52.132;5.442;2022-10-19T04:58:10;4.28;;;2.50;;
71965;SDS011;59836;52.132;5.442;2022-10-19T05:00:37;3.88;;;2.42;;
71965;SDS011;59836;52.132;5.442;2022-10-19T05:03:04;6.00;;;2.90;;
71965;SDS011;59836;52.132;5.442;2022-10-19T05:05:33;4.10;;;2.42;;
71965;SDS011;59836;52.132;5.442;2022-10-19T05:08:09;3.40;;;2.50;;
71965;SDS011;59836;52.132;5.442;2022-10-19T05:13:33;3.90;;;2.38;;
71965;SDS011;59836;52.132;5.442;2022-10-19T05:16:01;4.93;;;2.88;;
71965;SDS011;59836;52.132;5.442;2022-10-19T05:18:29;5.30;;;2.72;;
71965;SDS011;59836;52.132;5.442;2022-10-19T05:21:12;4.13;;;2.83;;
71965;SDS011;59836;52.132;5.442;2022-10-19T05:23:45;5.07;;;2.60;;
71965;SDS011;59836;52.132;5.442;2022-10-19T05:26:16;4.13;;;2.22;;
71965;SDS011;59836;52.132;5.442;2022-10-19T05:28:59;4.30;;;2.63;;
71965;SDS011;59836;52.132;5.442;2022-10-19T05:31:46;3.30;;;2.38;;
71965;SDS011;59836;52.132;5.442;2022-10-19T05:37:05;2.97;;;2.08;;
71965;SDS011;59836;52.132;5.442;2022-10-19T05:39:31;2.72;;;2.20;;
71965;SDS011;59836;52.132;5.442;2022-10-19T05:41:58;2.92;;;2.00;;
71965;SDS011;59836;52.132;5.442;2022-10-19T05:44:24;2.78;;;1.83;;
71965;SDS011;59836;52.132;5.442;2022-10-19T05:46:51;3.07;;;2.20;;
71965;SDS011;59836;52.132;5.442;2022-10-19T05:49:34;4.43;;;2.20;;
71965;SDS011;59836;52.132;5.442;2022-10-19T05:52:01;2.85;;;2.15;;
71965;SDS011;59836;52.132;5.442;2022-10-19T05:54:28;3.15;;;2.03;;
71965;SDS011;59836;52.132;5.442;2022-10-19T05:56:54;5.47;;;2.30;;
71965;SDS011;59836;52.132;5.442;2022-10-19T05:59:37;4.97;;;1.90;;
71965;SDS011;59836;52.132;5.442;2022-10-19T06:02:04;3.00;;;2.00;;
71965;SDS011;59836;52.132;5.442;2022-10-19T06:04:41;2.58;;;1.90;;
71965;SDS011;59836;52.132;5.442;2022-10-19T06:07:08;6.50;;;1.98;;
71965;SDS011;59836;52.132;5.442;2022-10-19T06:09:49;3.58;;;2.25;;
71965;SDS011;59836;52.132;5.442;2022-10-19T06:12:18;3.80;;;1.97;;
71965;SDS011;59836;52.132;5.442;2022-10-19T06:17:39;4.10;;;1.92;;
71965;SDS011;59836;52.132;5.442;2022-10-19T06:20:18;3.28;;;1.70;;
71965;SDS011;59836;52.132;5.442;2022-10-19T06:22:44;3.95;;;2.10;;
71965;SDS011;59836;52.132;5.442;2022-10-19T06:25:11;4.63;;;2.33;;
71965;SDS011;59836;52.132;5.442;2022-10-19T06:27:43;3.13;;;1.58;;
71965;SDS011;59836;52.132;5.442;2022-10-19T06:30:09;2.75;;;1.70;;
71965;SDS011;59836;52.132;5.442;2022-10-19T06:32:36;3.40;;;1.90;;
71965;SDS011;59836;52.132;5.442;2022-10-19T06:35:03;4.43;;;2.42;;
71965;SDS011;59836;52.132;5.442;2022-10-19T06:37:43;2.90;;;2.07;;
71965;SDS011;59836;52.132;5.442;2022-10-19T06:40:21;3.55;;;2.33;;
71965;SDS011;59836;52.132;5.442;2022-10-19T06:42:54;6.00;;;2.20;;
71965;SDS011;59836;52.132;5.442;2022-10-19T06:48:49;3.60;;;2.40;;
71965;SDS011;59836;52.132;5.442;2022-10-19T06:51:40;4.97;;;2.10;;
71965;SDS011;59836;52.132;5.442;2022-10-19T06:57:51;2.47;;;2.10;;
71965;SDS011;59836;52.132;5.442;2022-10-19T07:00:23;3.72;;;2.45;;
71965;SDS011;59836;52.132;5.442;2022-10-19T07:03:07;4.93;;;2.67;;
71965;SDS011;59836;52.132;5.442;2022-10-19T07:15:54;3.75;;;1.63;;
71965;SDS011;59836;52.132;5.442;2022-10-19T07:18:35;4.90;;;2.17;;
71965;SDS011;59836;52.132;5.442;2022-10-19T07:21:07;3.70;;;1.57;;
71965;SDS011;59836;52.132;5.442;2022-10-19T07:23:48;2.45;;;1.50;;
71965;SDS011;59836;52.132;5.442;2022-10-19T07:26:22;6.38;;;1.48;;
71965;SDS011;59836;52.132;5.442;2022-10-19T07:28:56;4.25;;;1.80;;
71965;SDS011;59836;52.132;5.442;2022-10-19T07:31:37;2.55;;;1.40;;
71965;SDS011;59836;52.132;5.442;2022-10-19T07:34:10;2.83;;;1.77;;
71965;SDS011;59836;52.132;5.442;2022-10-19T07:36:44;2.38;;;1.13;;
71965;SDS011;59836;52.132;5.442;2022-10-19T07:39:27;3.85;;;1.40;;
71965;SDS011;59836;52.132;5.442;2022-10-19T07:42:10;5.10;;;1.92;;
71965;SDS011;59836;52.132;5.442;2022-10-19T07:44:55;4.65;;;1.60;;
71965;SDS011;59836;52.132;5.442;2022-10-19T07:47:23;7.30;;;2.20;;
71965;SDS011;59836;52.132;5.442;2022-10-19T07:49:50;6.55;;;1.83;;
71965;SDS011;59836;52.132;5.442;2022-10-19T07:52:19;5.65;;;1.75;;
71965;SDS011;59836;52.132;5.442;2022-10-19T07:54:46;5.45;;;1.48;;
71965;SDS011;59836;52.132;5.442;2022-10-19T07:57:15;2.20;;;1.60;;
71965;SDS011;59836;52.132;5.442;2022-10-19T07:59:42;3.30;;;1.60;;
71965;SDS011;59836;52.132;5.442;2022-10-19T08:02:22;8.63;;;1.55;;
71965;SDS011;59836;52.132;5.442;2022-10-19T08:05:04;5.72;;;1.40;;
71965;SDS011;59836;52.132;5.442;2022-10-19T08:07:36;5.53;;;1.48;;
71965;SDS011;59836;52.132;5.442;2022-10-19T08:10:03;4.53;;;2.10;;
71965;SDS011;59836;52.132;5.442;2022-10-19T08:12:30;3.67;;;1.90;;
71965;SDS011;59836;52.132;5.442;2022-10-19T08:14:57;5.13;;;1.80;;
71965;SDS011;59836;52.132;5.442;2022-10-19T08:17:24;3.85;;;1.70;;
71965;SDS011;59836;52.132;5.442;2022-10-19T08:19:51;5.53;;;1.83;;
71965;SDS011;59836;52.132;5.442;2022-10-19T08:22:18;9.25;;;2.05;;
71965;SDS011;59836;52.132;5.442;2022-10-19T08:24:44;5.80;;;1.50;;
71965;SDS011;59836;52.132;5.442;2022-10-19T08:27:16;4.28;;;1.40;;
71965;SDS011;59836;52.132;5.442;2022-10-19T08:29:42;5.45;;;1.48;;
71965;SDS011;59836;52.132;5.442;2022-10-19T08:32:09;7.07;;;2.70;;
71965;SDS011;59836;52.132;5.442;2022-10-19T08:37:24;5.10;;;1.90;;
71965;SDS011;59836;52.132;5.442;2022-10-19T08:46:22;3.63;;;1.60;;
71965;SDS011;59836;52.132;5.442;2022-10-19T08:49:02;4.43;;;1.52;;
71965;SDS011;59836;52.132;5.442;2022-10-19T08:51:31;7.70;;;1.73;;
71965;SDS011;59836;52.132;5.442;2022-10-19T08:56:49;4.30;;;1.77;;
71965;SDS011;59836;52.132;5.442;2022-10-19T09:08:09;3.47;;;1.80;;
71965;SDS011;59836;52.132;5.442;2022-10-19T09:10:43;3.63;;;1.98;;
71965;SDS011;59836;52.132;5.442;2022-10-19T09:16:19;7.20;;;1.85;;
71965;SDS011;59836;52.132;5.442;2022-10-19T09:18:46;3.10;;;1.50;;
71965;SDS011;59836;52.132;5.442;2022-10-19T09:21:15;6.00;;;2.20;;
71965;SDS011;59836;52.132;5.442;2022-10-19T09:24:05;3.45;;;1.90;;
71965;SDS011;59836;52.132;5.442;2022-10-19T09:27:01;4.55;;;1.42;;
71965;SDS011;59836;52.132;5.442;2022-10-19T09:34:56;4.72;;;1.83;;
71965;SDS011;59836;52.132;5.442;2022-10-19T09:37:28;4.93;;;1.70;;
71965;SDS011;59836;52.132;5.442;2022-10-19T09:39:58;7.93;;;2.10;;
71965;SDS011;59836;52.132;5.442;2022-10-19T09:42:25;2.95;;;1.73;;
71965;SDS011;59836;52.132;5.442;2022-10-19T09:48:00;3.03;;;1.45;;
71965;SDS011;59836;52.132;5.442;2022-10-19T09:50:38;4.28;;;1.60;;
71965;SDS011;59836;52.132;5.442;2022-10-19T09:53:15;3.85;;;1.83;;
71965;SDS011;59836;52.132;5.442;2022-10-19T09:58:47;3.70;;;1.30;;
71965;SDS011;59836;52.132;5.442;2022-10-19T10:01:29;4.70;;;1.90;;
71965;SDS011;59836;52.132;5.442;2022-10-19T10:04:16;4.25;;;1.58;;
71965;SDS011;59836;52.132;5.442;2022-10-19T10:06:54;5.35;;;1.50;;
71965;SDS011;59836;52.132;5.442;2022-10-19T10:09:26;4.07;;;1.30;;
71965;SDS011;59836;52.132;5.442;2022-10-19T10:21:03;4.93;;;1.15;;
71965;SDS011;59836;52.132;5.442;2022-10-19T10:23:37;3.35;;;0.75;;
71965;SDS011;59836;52.132;5.442;2022-10-19T10:26:14;6.00;;;1.17;;
71965;SDS011;59836;52.132;5.442;2022-10-19T10:28:45;4.13;;;0.75;;
71965;SDS011;59836;52.132;5.442;2022-10-19T10:31:14;3.67;;;1.30;;
71965;SDS011;59836;52.132;5.442;2022-10-19T10:33:44;4.50;;;1.08;;
71965;SDS011;59836;52.132;5.442;2022-10-19T10:36:22;2.92;;;0.75;;
71965;SDS011;59836;52.132;5.442;2022-10-19T10:39:11;5.27;;;1.00;;
71965;SDS011;59836;52.132;5.442;2022-10-19T10:41:42;2.47;;;0.98;;
71965;SDS011;59836;52.132;5.442;2022-10-19T10:44:17;4.18;;;1.00;;
71965;SDS011;59836;52.132;5.442;2022-10-19T10:47:00;3.03;;;0.73;;
71965;SDS011;59836;52.132;5.442;2022-10-19T10:49:42;2.55;;;0.82;;
71965;SDS011;59836;52.132;5.442;2022-10-19T10:52:10;6.00;;;1.30;;
71965;SDS011;59836;52.132;5.442;2022-10-19T10:54:39;6.13;;;0.95;;
71965;SDS011;59836;52.132;5.442;2022-10-19T10:57:20;3.28;;;0.73;;
71965;SDS011;59836;52.132;5.442;2022-10-19T11:04:07;3.53;;;1.02;;
71965;SDS011;59836;52.132;5.442;2022-10-19T11:06:53;5.03;;;1.00;;
71965;SDS011;59836;52.132;5.442;2022-10-19T11:09:41;4.03;;;1.15;;
71965;SDS011;59836;52.132;5.442;2022-10-19T11:12:13;2.55;;;0.95;;
71965;SDS011;59836;52.132;5.442;2022-10-19T11:14:52;3.72;;;1.10;;
71965;SDS011;59836;52.132;5.442;2022-10-19T11:17:26;4.22;;;0.88;;
71965;SDS011;59836;52.132;5.442;2022-10-19T11:20:04;3.53;;;0.90;;
71965;SDS011;59836;52.132;5.442;2022-10-19T11:25:26;4.25;;;0.90;;
71965;SDS011;59836;52.132;5.442;2022-10-19T11:31:14;2.65;;;1.00;;
71965;SDS011;59836;52.132;5.442;2022-10-19T11:39:57;5.03;;;0.80;;
71965;SDS011;59836;52.132;5.442;2022-10-19T11:43:03;3.65;;;1.40;;
71965;SDS011;59836;52.132;5.442;2022-10-19T11:52:27;4.93;;;1.20;;
71965;SDS011;59836;52.132;5.442;2022-10-19T11:58:28;2.97;;;1.00;;
71965;SDS011;59836;52.132;5.442;2022-10-19T12:01:47;3.88;;;1.33;;
71965;SDS011;59836;52.132;5.442;2022-10-19T12:04:38;2.93;;;0.50;;
71965;SDS011;59836;52.132;5.442;2022-10-19T12:10:11;3.15;;;1.17;;
71965;SDS011;59836;52.132;5.442;2022-10-19T12:13:02;2.53;;;0.88;;
71965;SDS011;59836;52.132;5.442;2022-10-19T12:15:51;4.90;;;1.23;;
71965;SDS011;59836;52.132;5.442;2022-10-19T12:21:01;2.47;;;1.10;;
71965;SDS011;59836;52.132;5.442;2022-10-19T12:23:35;6.65;;;1.10;;
71965;SDS011;59836;52.132;5.442;2022-10-19T12:26:08;5.18;;;0.95;;
71965;SDS011;59836;52.132;5.442;2022-10-19T12:28:40;3.92;;;1.13;;
71965;SDS011;59836;52.132;5.442;2022-10-19T12:31:12;3.40;;;0.70;;
71965;SDS011;59836;52.132;5.442;2022-10-19T12:37:12;3.03;;;0.98;;
71965;SDS011;59836;52.132;5.442;2022-10-19T12:42:20;1.52;;;0.95;;
71965;SDS011;59836;52.132;5.442;2022-10-19T12:51:02;3.25;;;1.50;;
71965;SDS011;59836;52.132;5.442;2022-10-19T12:56:22;4.78;;;1.33;;
71965;SDS011;59836;52.132;5.442;2022-10-19T12:58:55;5.87;;;1.67;;
71965;SDS011;59836;52.132;5.442;2022-10-19T13:01:28;3.85;;;1.58;;
71965;SDS011;59836;52.132;5.442;2022-10-19T13:04:17;3.00;;;1.73;;
71965;SDS011;59836;52.132;5.442;2022-10-19T13:06:47;3.95;;;1.33;;
71965;SDS011;59836;52.132;5.442;2022-10-19T13:09:23;3.58;;;1.73;;
71965;SDS011;59836;52.132;5.442;2022-10-19T13:14:59;3.20;;;1.40;;
71965;SDS011;59836;52.132;5.442;2022-10-19T13:22:41;2.63;;;1.00;;
71965;SDS011;59836;52.132;5.442;2022-10-19T13:25:35;5.00;;;1.20;;
71965;SDS011;59836;52.132;5.442;2022-10-19T13:47:20;3.72;;;1.23;;
71965;SDS011;59836;52.132;5.442;2022-10-19T13:53:30;1.60;;;0.70;;
71965;SDS011;59836;52.132;5.442;2022-10-19T13:59:02;5.70;;;0.70;;
71965;SDS011;59836;52.132;5.442;2022-10-19T14:01:55;3.88;;;0.88;;
71965;SDS011;59836;52.132;5.442;2022-10-19T14:10:30;5.03;;;0.80;;
71965;SDS011;59836;52.132;5.442;2022-10-19T14:13:10;4.28;;;0.75;;
71965;SDS011;59836;52.132;5.442;2022-10-19T14:15:50;1.88;;;0.52;;
71965;SDS011;59836;52.132;5.442;2022-10-19T14:18:23;3.83;;;0.63;;
71965;SDS011;59836;52.132;5.442;2022-10-19T14:20:58;4.20;;;1.10;;
71965;SDS011;59836;52.132;5.442;2022-10-19T14:23:31;3.58;;;0.90;;
71965;SDS011;59836;52.132;5.442;2022-10-19T14:26:03;2.00;;;0.70;;
71965;SDS011;59836;52.132;5.442;2022-10-19T14:28:32;2.92;;;0.73;;
71965;SDS011;59836;52.132;5.442;2022-10-19T14:31:01;3.83;;;0.90;;
71965;SDS011;59836;52.132;5.442;2022-10-19T14:33:34;2.13;;;0.93;;
71965;SDS011;59836;52.132;5.442;2022-10-19T14:36:04;4.80;;;1.05;;
71965;SDS011;59836;52.132;5.442;2022-10-19T14:38:36;1.85;;;0.60;;
71965;SDS011;59836;52.132;5.442;2022-10-19T14:41:28;1.58;;;0.65;;
71965;SDS011;59836;52.132;5.442;2022-10-19T14:43:53;1.75;;;0.70;;
71965;SDS011;59836;52.132;5.442;2022-10-19T14:46:23;2.57;;;0.60;;
71965;SDS011;59836;52.132;5.442;2022-10-19T14:48:58;1.10;;;0.70;;
71965;SDS011;59836;52.132;5.442;2022-10-19T14:57:02;5.55;;;1.00;;
71965;SDS011;59836;52.132;5.442;2022-10-19T15:02:25;3.85;;;0.90;;
71965;SDS011;59836;52.132;5.442;2022-10-19T15:04:59;4.80;;;0.90;;
71965;SDS011;59836;52.132;5.442;2022-10-19T15:10:00;2.70;;;1.08;;
71965;SDS011;59836;52.132;5.442;2022-10-19T15:12:34;2.27;;;0.90;;
71965;SDS011;59836;52.132;5.442;2022-10-19T15:21:11;3.40;;;1.45;;
71965;SDS011;59836;52.132;5.442;2022-10-19T15:23:43;5.35;;;1.20;;
71965;SDS011;59836;52.132;5.442;2022-10-19T15:26:14;5.43;;;1.00;;
71965;SDS011;59836;52.132;5.442;2022-10-19T15:28:44;3.40;;;0.98;;
71965;SDS011;59836;52.132;5.442;2022-10-19T15:31:16;4.70;;;0.77;;
71965;SDS011;59836;52.132;5.442;2022-10-19T15:36:58;3.90;;;1.27;;
71965;SDS011;59836;52.132;5.442;2022-10-19T15:39:34;3.15;;;0.82;;
71965;SDS011;59836;52.132;5.442;2022-10-19T15:45:27;1.92;;;1.17;;
71965;SDS011;59836;52.132;5.442;2022-10-19T15:48:13;3.53;;;0.98;;
71965;SDS011;59836;52.132;5.442;2022-10-19T15:53:22;4.40;;;1.20;;
71965;SDS011;59836;52.132;5.442;2022-10-19T15:55:48;6.63;;;1.08;;
71965;SDS011;59836;52.132;5.442;2022-10-19T15:58:15;5.93;;;1.20;;
71965;SDS011;59836;52.132;5.442;2022-10-19T16:00:51;4.25;;;0.95;;
71965;SDS011;59836;52.132;5.442;2022-10-19T16:09:03;5.45;;;1.08;;
71965;SDS011;59836;52.132;5.442;2022-10-19T16:11:29;3.25;;;1.10;;
71965;SDS011;59836;52.132;5.442;2022-10-19T16:14:07;3.25;;;1.30;;
71965;SDS011;59836;52.132;5.442;2022-10-19T16:16:34;6.53;;;1.03;;
71965;SDS011;59836;52.132;5.442;2022-10-19T16:19:00;4.28;;;1.60;;
71965;SDS011;59836;52.132;5.442;2022-10-19T16:21:29;4.07;;;1.25;;
71965;SDS011;59836;52.132;5.442;2022-10-19T16:32:59;3.00;;;1.98;;
71965;SDS011;59836;52.132;5.442;2022-10-19T16:38:11;5.13;;;2.53;;
71965;SDS011;59836;52.132;5.442;2022-10-19T16:40:38;4.13;;;2.72;;
71965;SDS011;59836;52.132;5.442;2022-10-19T16:43:06;4.80;;;2.27;;
71965;SDS011;59836;52.132;5.442;2022-10-19T16:45:32;6.68;;;2.88;;
71965;SDS011;59836;52.132;5.442;2022-10-19T16:50:31;5.85;;;2.60;;
71965;SDS011;59836;52.132;5.442;2022-10-19T16:56:12;7.87;;;2.80;;
71965;SDS011;59836;52.132;5.442;2022-10-19T16:58:39;7.40;;;2.65;;
71965;SDS011;59836;52.132;5.442;2022-10-19T17:01:17;8.52;;;2.83;;
71965;SDS011;59836;52.132;5.442;2022-10-19T17:03:45;5.45;;;3.05;;
71965;SDS011;59836;52.132;5.442;2022-10-19T17:06:13;4.97;;;2.53;;
71965;SDS011;59836;52.132;5.442;2022-10-19T17:08:41;6.50;;;3.07;;
71965;SDS011;59836;52.132;5.442;2022-10-19T17:11:32;4.28;;;2.85;;
71965;SDS011;59836;52.132;5.442;2022-10-19T17:14:17;8.95;;;3.42;;
71965;SDS011;59836;52.132;5.442;2022-10-19T17:16:44;6.85;;;3.35;;
71965;SDS011;59836;52.132;5.442;2022-10-19T17:19:16;7.05;;;3.45;;
71965;SDS011;59836;52.132;5.442;2022-10-19T17:21:42;6.40;;;3.23;;
71965;SDS011;59836;52.132;5.442;2022-10-19T17:24:13;6.13;;;3.40;;
71965;SDS011;59836;52.132;5.442;2022-10-19T17:26:49;6.65;;;3.47;;
71965;SDS011;59836;52.132;5.442;2022-10-19T17:29:23;9.40;;;3.83;;
71965;SDS011;59836;52.132;5.442;2022-10-19T17:40:10;6.93;;;3.55;;
71965;SDS011;59836;52.132;5.442;2022-10-19T17:42:36;7.85;;;4.00;;
71965;SDS011;59836;52.132;5.442;2022-10-19T17:45:03;6.15;;;3.53;;
71965;SDS011;59836;52.132;5.442;2022-10-19T17:47:36;7.03;;;3.93;;
71965;SDS011;59836;52.132;5.442;2022-10-19T17:50:03;9.27;;;3.88;;
71965;SDS011;59836;52.132;5.442;2022-10-19T17:52:42;6.85;;;3.42;;
71965;SDS011;59836;52.132;5.442;2022-10-19T17:55:24;6.25;;;3.20;;
71965;SDS011;59836;52.132;5.442;2022-10-19T17:58:07;4.38;;;3.90;;
71965;SDS011;59836;52.132;5.442;2022-10-19T18:00:37;7.70;;;3.83;;
71965;SDS011;59836;52.132;5.442;2022-10-19T18:03:08;4.88;;;3.17;;
71965;SDS011;59836;52.132;5.442;2022-10-19T18:08:39;7.70;;;3.13;;
71965;SDS011;59836;52.132;5.442;2022-10-19T18:13:35;5.07;;;4.10;;
71965;SDS011;59836;52.132;5.442;2022-10-19T18:16:06;5.93;;;3.97;;
71965;SDS011;59836;52.132;5.442;2022-10-19T18:18:38;5.65;;;3.70;;
71965;SDS011;59836;52.132;5.442;2022-10-19T18:21:08;6.22;;;3.42;;
71965;SDS011;59836;52.132;5.442;2022-10-19T18:23:39;8.85;;;4.93;;
71965;SDS011;59836;52.132;5.442;2022-10-19T18:26:07;6.10;;;3.93;;
71965;SDS011;59836;52.132;5.442;2022-10-19T18:28:35;6.53;;;3.72;;
71965;SDS011;59836;52.132;5.442;2022-10-19T18:33:44;8.88;;;4.45;;
71965;SDS011;59836;52.132;5.442;2022-10-19T18:36:13;8.10;;;4.03;;
71965;SDS011;59836;52.132;5.442;2022-10-19T18:38:40;4.73;;;4.23;;
71965;SDS011;59836;52.132;5.442;2022-10-19T18:41:08;8.68;;;4.00;;
71965;SDS011;59836;52.132;5.442;2022-10-19T18:43:41;6.15;;;4.05;;
71965;SDS011;59836;52.132;5.442;2022-10-19T18:46:14;7.68;;;3.92;;
71965;SDS011;59836;52.132;5.442;2022-10-19T18:48:40;6.07;;;3.60;;
71965;SDS011;59836;52.132;5.442;2022-10-19T18:51:21;5.17;;;3.73;;
71965;SDS011;59836;52.132;5.442;2022-10-19T18:53:48;5.75;;;3.22;;
71965;SDS011;59836;52.132;5.442;2022-10-19T18:58:54;4.38;;;3.45;;
71965;SDS011;59836;52.132;5.442;2022-10-19T19:01:23;6.65;;;3.20;;
71965;SDS011;59836;52.132;5.442;2022-10-19T19:03:52;4.10;;;3.17;;
71965;SDS011;59836;52.132;5.442;2022-10-19T19:09:24;5.28;;;2.72;;
71965;SDS011;59836;52.132;5.442;2022-10-19T19:11:51;5.60;;;2.83;;
71965;SDS011;59836;52.132;5.442;2022-10-19T19:14:19;7.03;;;3.05;;
71965;SDS011;59836;52.132;5.442;2022-10-19T19:16:46;6.87;;;3.43;;
71965;SDS011;59836;52.132;5.442;2022-10-19T19:19:22;7.15;;;3.25;;
71965;SDS011;59836;52.132;5.442;2022-10-19T19:21:50;4.15;;;3.00;;
71965;SDS011;59836;52.132;5.442;2022-10-19T19:24:18;7.53;;;2.83;;
71965;SDS011;59836;52.132;5.442;2022-10-19T19:26:48;6.65;;;3.50;;
71965;SDS011;59836;52.132;5.442;2022-10-19T19:29:16;6.00;;;3.23;;
71965;SDS011;59836;52.132;5.442;2022-10-19T19:31:44;5.25;;;3.30;;
71965;SDS011;59836;52.132;5.442;2022-10-19T19:37:20;3.83;;;2.65;;
71965;SDS011;59836;52.132;5.442;2022-10-19T19:39:47;6.72;;;3.00;;
71965;SDS011;59836;52.132;5.442;2022-10-19T19:42:13;6.00;;;3.00;;
71965;SDS011;59836;52.132;5.442;2022-10-19T19:44:47;4.60;;;2.72;;